Time;durP1;ratioP1;P1;durP2;ratioP2;P2;SDS_P1;SDS_P2;PMS_P1;PMS_P2;Temp;Humidity;BMP_temperature;BMP_pressure;BME280_temperature;BME280_humidity;BME280_pressure;Samples;Min_cycle;Max_cycle;Signal;HPM_P1;HPM_P2
2021/10/13 00:01:17;;;;;;;32.28;17.30;;;;;;;10.15;100.00;99496.36;1704252;84;21009;-78
2021/10/13 00:03:44;;;;;;;27.20;15.48;;;;;;;10.13;100.00;99493.02;1704346;83;21581;-78
2021/10/13 00:06:11;;;;;;;26.37;14.47;;;;;;;10.10;100.00;99489.31;1704200;84;21080;-78
2021/10/13 00:08:37;;;;;;;25.97;14.25;;;;;;;10.08;100.00;99492.71;1704171;84;21025;-79
2021/10/13 00:11:04;;;;;;;27.80;15.10;;;;;;;10.06;100.00;99483.95;1704484;84;21491;-80
2021/10/13 00:13:31;;;;;;;23.20;14.53;;;;;;;10.02;100.00;99480.78;1686788;85;21022;-79
2021/10/13 00:15:58;;;;;;;27.00;15.45;;;;;;;10.00;100.00;99480.61;1712285;84;21024;-79
2021/10/13 00:18:25;;;;;;;24.72;14.60;;;;;;;9.98;100.00;99477.25;1704405;84;20985;-78
2021/10/13 00:20:52;;;;;;;27.02;16.40;;;;;;;9.96;100.00;99475.25;1712260;84;21073;-78
2021/10/13 00:23:19;;;;;;;25.60;16.45;;;;;;;9.92;100.00;99473.42;1704059;84;21542;-78
2021/10/13 00:25:46;;;;;;;24.47;14.40;;;;;;;9.88;100.00;99474.30;1704386;84;21041;-79
2021/10/13 00:28:12;;;;;;;23.25;14.23;;;;;;;9.86;100.00;99476.83;1686289;85;21062;-78
2021/10/13 00:30:39;;;;;;;25.27;14.78;;;;;;;9.84;100.00;99472.98;1686758;85;21047;-80
2021/10/13 00:33:05;;;;;;;28.42;16.57;;;;;;;9.83;100.00;99468.59;1686659;85;21070;-79
2021/10/13 00:35:32;;;;;;;26.70;16.17;;;;;;;9.82;100.00;99473.66;1686539;85;21050;-79
2021/10/13 00:38:01;;;;;;;26.97;15.80;;;;;;;9.82;100.00;99472.82;1685264;85;21027;-79
2021/10/13 00:40:29;;;;;;;23.42;13.25;;;;;;;9.78;100.00;99463.41;1677220;86;21051;-79
2021/10/13 00:42:56;;;;;;;22.70;12.68;;;;;;;9.77;100.00;99461.72;1676890;86;21027;-79
2021/10/13 00:45:24;;;;;;;26.02;13.35;;;;;;;9.75;100.00;99469.16;1676925;86;21106;-78
2021/10/13 00:47:51;;;;;;;24.55;13.83;;;;;;;9.73;100.00;99476.09;1681061;85;21583;-80
2021/10/13 00:50:17;;;;;;;23.87;14.20;;;;;;;9.72;100.00;99480.31;1706471;84;21039;-78
2021/10/13 00:52:45;;;;;;;25.15;15.30;;;;;;;9.69;100.00;99474.77;1689489;85;21043;-79
2021/10/13 00:55:17;;;;;;;25.27;14.23;;;;;;;9.64;100.00;99478.00;1706402;84;20968;-80
2021/10/13 00:57:41;;;;;;;22.98;12.88;;;;;;;9.62;100.00;99480.56;1665216;85;21046;-79
2021/10/13 01:00:10;;;;;;;21.00;12.03;;;;;;;9.59;100.00;99470.94;1706213;84;21540;-79
2021/10/13 01:02:41;;;;;;;22.65;11.33;;;;;;;9.57;100.00;99472.98;1706240;84;21042;-77
2021/10/13 01:05:17;;;;;;;21.82;12.53;;;;;;;9.55;100.00;99475.02;1703088;84;21035;-77
2021/10/13 01:08:03;;;;;;;22.73;13.68;;;;;;;9.53;100.00;99473.54;1703203;84;21027;-79
2021/10/13 01:10:45;;;;;;;22.45;13.28;;;;;;;9.49;100.00;99479.28;1705965;84;21027;-79
2021/10/13 01:13:39;;;;;;;27.48;16.50;;;;;;;9.49;100.00;99483.81;1706197;84;21047;-80
2021/10/13 01:16:30;;;;;;;32.13;19.12;;;;;;;9.45;100.00;99480.63;1703062;84;21055;-78
2021/10/13 01:19:04;;;;;;;39.27;24.43;;;;;;;9.45;100.00;99473.89;1684407;85;21006;-79
2021/10/13 01:22:08;;;;;;;29.95;18.90;;;;;;;9.44;100.00;99470.05;1716399;84;21027;-79
2021/10/13 01:24:41;;;;;;;28.12;16.30;;;;;;;9.43;100.00;99473.23;1716567;84;21022;-78
2021/10/13 01:28:01;;;;;;;29.35;18.02;;;;;;;9.42;100.00;99464.82;1685136;85;21065;-79
2021/10/13 01:30:36;;;;;;;27.22;16.90;;;;;;;9.42;100.00;99472.05;1687274;85;21105;-80
2021/10/13 01:33:07;;;;;;;29.13;17.50;;;;;;;9.38;100.00;99460.78;1687538;85;21093;-78
2021/10/13 01:35:35;;;;;;;33.38;17.65;;;;;;;9.37;100.00;99459.63;1687878;85;21030;-79
2021/10/13 01:38:07;;;;;;;25.48;16.50;;;;;;;9.35;100.00;99454.41;1687982;85;21105;-78
2021/10/13 01:40:34;;;;;;;27.00;16.43;;;;;;;9.33;100.00;99459.63;1658289;85;21052;-78
2021/10/13 01:43:02;;;;;;;28.03;16.77;;;;;;;9.32;100.00;99466.90;1656073;87;21117;-79
2021/10/13 01:45:29;;;;;;;28.70;16.63;;;;;;;9.30;100.00;99462.19;1656019;87;21154;-79
2021/10/13 01:47:56;;;;;;;28.02;15.75;;;;;;;9.28;100.00;99462.88;1652307;87;21101;-78
2021/10/13 01:50:24;;;;;;;22.45;14.00;;;;;;;9.24;100.00;99452.09;1652276;87;21088;-78
2021/10/13 01:52:51;;;;;;;26.00;14.63;;;;;;;9.19;100.00;99452.64;1652501;87;21057;-78
2021/10/13 01:55:19;;;;;;;27.32;14.95;;;;;;;9.16;100.00;99453.50;1652705;86;21055;-79
2021/10/13 01:57:49;;;;;;;29.57;15.15;;;;;;;9.11;100.00;99445.41;1652108;87;21052;-78
2021/10/13 02:00:16;;;;;;;48.58;27.60;;;;;;;9.06;100.00;99446.44;1630411;87;21044;-79
2021/10/13 02:02:44;;;;;;;38.10;21.47;;;;;;;9.02;100.00;99452.38;1652046;85;21068;-79
2021/10/13 02:05:12;;;;;;;37.30;21.95;;;;;;;8.97;100.00;99450.20;1652114;87;21008;-79
2021/10/13 02:07:40;;;;;;;73.30;38.10;;;;;;;8.92;100.00;99450.74;1652232;87;21099;-79
2021/10/13 02:10:09;;;;;;;35.97;21.37;;;;;;;8.88;100.00;99454.78;1630401;87;21538;-79
2021/10/13 02:12:39;;;;;;;43.13;24.73;;;;;;;8.85;100.00;99455.64;1652391;87;20985;-79
2021/10/13 02:15:08;;;;;;;34.48;19.30;;;;;;;8.81;100.00;99457.84;1652169;87;21032;-78
2021/10/13 02:17:38;;;;;;;29.27;17.63;;;;;;;8.78;100.00;99461.39;1652444;87;21506;-79
2021/10/13 02:20:07;;;;;;;25.53;15.60;;;;;;;8.74;100.00;99458.20;1652456;87;21076;-79
2021/10/13 02:22:36;;;;;;;26.77;14.83;;;;;;;8.71;100.00;99458.06;1652250;87;21075;-80
2021/10/13 02:25:03;;;;;;;25.83;15.97;;;;;;;8.68;100.00;99454.36;1722592;83;21026;-78
2021/10/13 02:27:47;;;;;;;26.03;15.67;;;;;;;8.66;100.00;99458.25;1724671;81;21042;-79
2021/10/13 02:30:14;;;;;;;30.20;17.48;;;;;;;8.62;100.00;99456.38;1737752;83;21120;-79
2021/10/13 02:32:41;;;;;;;30.37;18.67;;;;;;;8.59;100.00;99455.88;1738227;83;21477;-78
2021/10/13 02:35:08;;;;;;;29.77;18.03;;;;;;;8.56;100.00;99462.47;1738371;83;21163;-78
2021/10/13 02:37:35;;;;;;;31.10;19.87;;;;;;;8.53;100.00;99466.84;1738059;83;21038;-80
2021/10/13 02:40:05;;;;;;;32.90;18.83;;;;;;;8.50;100.00;99472.09;1738742;82;21044;-78
2021/10/13 02:42:33;;;;;;;29.83;18.33;;;;;;;8.49;100.00;99466.35;1738960;82;21536;-78
2021/10/13 02:45:00;;;;;;;33.87;21.80;;;;;;;8.48;100.00;99462.48;1738952;82;21088;-79
2021/10/13 02:47:49;;;;;;;47.73;29.97;;;;;;;8.46;100.00;99461.30;1739102;82;21603;-80
2021/10/13 02:50:37;;;;;;;77.00;44.70;;;;;;;8.45;100.00;99466.89;1704029;84;21085;-78
2021/10/13 02:53:42;;;;;;;256.97;135.87;;;;;;;8.43;100.00;99464.84;1704066;84;21077;-79
2021/10/13 02:56:23;;;;;;;216.67;116.73;;;;;;;8.41;100.00;99462.80;1703960;84;21073;-79
2021/10/13 02:59:02;;;;;;;177.60;94.97;;;;;;;8.39;100.00;99454.05;1704027;84;21543;-80
2021/10/13 03:01:33;;;;;;;177.10;94.97;;;;;;;8.36;100.00;99455.25;1702718;84;21057;-78
2021/10/13 03:04:00;;;;;;;87.60;50.40;;;;;;;8.34;100.00;99451.89;1704039;84;21557;-79
2021/10/13 03:06:30;;;;;;;88.07;48.40;;;;;;;8.31;100.00;99440.94;1704846;84;21065;-79
2021/10/13 03:08:57;;;;;;;63.17;37.17;;;;;;;8.28;100.00;99447.17;1709819;84;21587;-79
2021/10/13 03:11:24;;;;;;;48.17;29.00;;;;;;;8.25;100.00;99444.33;1709901;84;21027;-79
2021/10/13 03:13:52;;;;;;;84.20;46.00;;;;;;;8.22;100.00;99439.27;1709939;84;21525;-79
2021/10/13 03:16:19;;;;;;;100.27;52.30;;;;;;;8.20;100.00;99441.78;1686471;84;21066;-78
2021/10/13 03:18:46;;;;;;;65.63;40.83;;;;;;;8.18;100.00;99443.33;1709768;84;21027;-78
2021/10/13 03:21:14;;;;;;;65.77;37.83;;;;;;;8.16;100.00;99448.02;1710135;84;21011;-79
2021/10/13 03:23:41;;;;;;;88.00;48.80;;;;;;;8.14;100.00;99442.83;1710132;82;21059;-79
2021/10/13 03:26:11;;;;;;;74.83;41.70;;;;;;;8.13;100.00;99443.00;1709833;84;21017;-79
2021/10/13 03:28:39;;;;;;;97.17;51.13;;;;;;;8.11;100.00;99436.42;1709829;84;21551;-79
2021/10/13 03:31:06;;;;;;;83.93;48.23;;;;;;;8.09;100.00;99438.45;1709821;84;21485;-78
2021/10/13 03:33:36;;;;;;;103.93;60.83;;;;;;;8.10;100.00;99439.28;1709295;84;21047;-79
2021/10/13 03:36:03;;;;;;;83.20;49.07;;;;;;;8.09;100.00;99443.84;1709643;84;21015;-79
2021/10/13 03:38:30;;;;;;;63.23;39.97;;;;;;;8.09;100.00;99430.37;1709396;83;21015;-78
2021/10/13 03:40:57;;;;;;;56.90;37.00;;;;;;;8.10;100.00;99431.21;1720572;83;21030;-78
2021/10/13 03:43:24;;;;;;;48.93;31.83;;;;;;;8.10;100.00;99437.94;1721065;83;21003;-78
2021/10/13 03:45:51;;;;;;;81.40;49.83;;;;;;;8.10;100.00;99428.00;1719648;83;21080;-79
2021/10/13 03:48:18;;;;;;;77.70;48.13;;;;;;;8.11;100.00;99425.66;1712150;84;21462;-79
2021/10/13 03:50:45;;;;;;;91.93;51.83;;;;;;;8.12;100.00;99423.80;1712174;84;21495;-80
2021/10/13 03:53:11;;;;;;;113.80;63.97;;;;;;;8.12;100.00;99422.45;1712332;84;21028;-78
2021/10/13 03:55:38;;;;;;;76.30;47.07;;;;;;;8.11;100.00;99420.27;1712219;84;21021;-79
2021/10/13 03:58:04;;;;;;;102.73;60.27;;;;;;;8.12;100.00;99413.02;1712206;84;21008;-78
2021/10/13 04:00:31;;;;;;;107.70;65.43;;;;;;;8.12;100.00;99407.13;1711805;84;21064;-78
2021/10/13 04:02:59;;;;;;;102.23;59.40;;;;;;;8.12;100.00;99392.31;1711885;83;21073;-79
2021/10/13 04:05:26;;;;;;;103.93;61.57;;;;;;;8.13;100.00;99389.97;1711901;82;21024;-79
2021/10/13 04:07:53;;;;;;;95.90;58.70;;;;;;;8.13;100.00;99387.28;1712034;84;21462;-79
2021/10/13 04:10:19;;;;;;;138.97;85.03;;;;;;;8.14;100.00;99396.19;1712082;84;21024;-80
2021/10/13 04:12:47;;;;;;;95.00;58.40;;;;;;;8.12;100.00;99407.13;1711676;83;21047;-79
2021/10/13 04:15:15;;;;;;;73.43;45.87;;;;;;;8.12;100.00;99410.33;1711889;84;21079;-78
2021/10/13 04:17:42;;;;;;;118.33;68.77;;;;;;;8.11;100.00;99402.77;1712012;84;20985;-79
2021/10/13 04:20:11;;;;;;;132.53;74.47;;;;;;;8.12;100.00;99400.91;1711805;84;21040;-78
2021/10/13 04:22:38;;;;;;;157.53;95.30;;;;;;;8.12;100.00;99413.02;1712090;84;21491;-79
2021/10/13 04:25:06;;;;;;;83.97;54.07;;;;;;;8.09;100.00;99424.99;1711945;84;21587;-78
2021/10/13 04:27:33;;;;;;;72.80;46.50;;;;;;;8.11;100.00;99419.41;1712045;84;21532;-80
2021/10/13 04:30:00;;;;;;;61.40;38.23;;;;;;;8.13;100.00;99429.53;1712205;84;21028;-79
2021/10/13 04:32:27;;;;;;;55.90;35.27;;;;;;;8.15;100.00;99438.27;1712136;84;20995;-79
2021/10/13 04:34:54;;;;;;;99.83;59.37;;;;;;;8.17;100.00;99434.91;1711694;82;21064;-78
2021/10/13 04:37:20;;;;;;;108.27;64.93;;;;;;;8.21;100.00;99432.70;1711962;84;20977;-78
2021/10/13 04:39:47;;;;;;;88.70;54.47;;;;;;;8.23;100.00;99417.21;1718023;81;21073;-79
2021/10/13 04:42:15;;;;;;;79.47;52.30;;;;;;;8.24;100.00;99407.62;1734226;83;21045;-79
2021/10/13 04:44:41;;;;;;;100.60;62.10;;;;;;;8.31;100.00;99404.57;1724217;83;21053;-79
2021/10/13 04:47:08;;;;;;;78.03;53.00;;;;;;;8.35;100.00;99396.47;1708024;83;21023;-79
2021/10/13 04:49:35;;;;;;;75.20;47.67;;;;;;;8.37;100.00;99390.91;1706453;83;21023;-80
2021/10/13 04:52:03;;;;;;;61.53;42.30;;;;;;;8.41;100.00;99396.80;1676627;86;21008;-80
2021/10/13 04:54:29;;;;;;;77.10;48.00;;;;;;;8.45;100.00;99393.63;1739016;82;21062;-79
2021/10/13 04:56:56;;;;;;;245.90;102.77;;;;;;;8.49;100.00;99386.87;1739315;82;21042;-80
2021/10/13 04:59:23;;;;;;;146.70;72.93;;;;;;;8.57;100.00;99383.33;1739215;82;21081;-79
2021/10/13 05:01:49;;;;;;;125.47;66.10;;;;;;;8.63;100.00;99386.66;1738254;82;21508;-80
2021/10/13 05:04:16;;;;;;;88.33;55.63;;;;;;;8.70;100.00;99400.28;1684331;84;21157;-82
2021/10/13 05:06:43;;;;;;;210.10;94.73;;;;;;;8.74;100.00;99393.00;1681516;85;21051;-81
2021/10/13 05:09:11;;;;;;;229.20;107.67;;;;;;;8.82;100.00;99392.14;1681447;85;21070;-79
2021/10/13 05:11:38;;;;;;;120.50;70.80;;;;;;;8.87;100.00;99401.89;1681251;85;21031;-80
2021/10/13 05:14:06;;;;;;;298.20;151.27;;;;;;;8.92;100.00;99400.86;1680796;85;21032;-78
2021/10/13 05:16:32;;;;;;;218.40;101.70;;;;;;;8.98;100.00;99405.19;1681082;85;21048;-80
2021/10/13 05:18:59;;;;;;;118.90;67.70;;;;;;;9.05;100.00;99406.20;1681532;85;21067;-77
2021/10/13 05:21:27;;;;;;;331.10;138.37;;;;;;;9.08;100.00;99403.98;1680587;85;21525;-78
2021/10/13 05:23:54;;;;;;;163.23;90.97;;;;;;;9.15;100.00;99404.61;1666709;86;21053;-82
2021/10/13 05:26:21;;;;;;;382.33;241.37;;;;;;;9.18;100.00;99398.34;1693261;85;21597;-81
2021/10/13 05:28:47;;;;;;;469.53;193.90;;;;;;;9.23;100.00;99400.53;1681291;85;21056;-79
2021/10/13 05:31:16;;;;;;;495.30;208.75;;;;;;;9.26;100.00;99400.14;1682915;85;21602;-79
2021/10/13 05:33:43;;;;;;;443.85;201.82;;;;;;;9.28;100.00;99394.92;1680395;85;21056;-79
2021/10/13 05:36:10;;;;;;;236.97;127.10;;;;;;;9.30;100.00;99384.78;1656759;87;21086;-79
2021/10/13 05:38:38;;;;;;;139.10;83.10;;;;;;;9.32;100.00;99385.95;1714930;83;21565;-78
2021/10/13 05:41:04;;;;;;;98.73;59.03;;;;;;;9.38;100.00;99377.66;1708472;81;21065;-77
2021/10/13 05:43:31;;;;;;;94.45;53.68;;;;;;;9.47;100.00;99376.08;1705559;84;21025;-80
2021/10/13 05:45:58;;;;;;;83.50;52.80;;;;;;;9.54;100.00;99376.17;1714105;82;21554;-79
2021/10/13 05:48:24;;;;;;;77.15;51.33;;;;;;;9.63;100.00;99378.30;1757436;82;21509;-83
2021/10/13 05:50:52;;;;;;;77.22;51.05;;;;;;;9.72;100.00;99370.97;1757794;82;21069;-79
2021/10/13 05:53:20;;;;;;;80.05;51.33;;;;;;;9.85;100.00;99367.98;1758358;81;21009;-80
2021/10/13 05:55:47;;;;;;;64.42;42.35;;;;;;;9.99;100.00;99366.86;1758628;82;21025;-78
2021/10/13 05:58:18;;;;;;;149.25;76.85;;;;;;;10.14;100.00;99366.88;1725874;82;21096;-78
2021/10/13 06:00:45;;;;;;;118.35;68.60;;;;;;;10.29;100.00;99363.67;1711305;83;20994;-85
2021/10/13 06:03:12;;;;;;;98.65;60.25;;;;;;;10.47;100.00;99354.40;1711783;83;21042;-79
2021/10/13 06:05:40;;;;;;;140.28;103.83;;;;;;;10.62;100.00;99353.36;1710739;83;21054;-80
2021/10/13 06:08:09;;;;;;;63.78;40.92;;;;;;;10.79;100.00;99347.73;1709581;83;21376;-78
2021/10/13 06:10:36;;;;;;;53.42;36.25;;;;;;;10.98;100.00;99348.48;1711316;83;21030;-79
2021/10/13 06:13:02;;;;;;;51.88;29.80;;;;;;;11.10;100.00;99342.06;1717538;82;21002;-76
2021/10/13 06:15:34;;;;;;;106.67;52.15;;;;;;;11.22;100.00;99343.73;1709882;82;21034;-77
2021/10/13 06:18:03;;;;;;;66.95;41.00;;;;;;;11.36;100.00;99337.94;1713543;82;21029;-78
2021/10/13 06:20:30;;;;;;;160.80;89.77;;;;;;;11.50;100.00;99333.50;1714630;83;20960;-82
2021/10/13 06:22:58;;;;;;;216.70;110.08;;;;;;;11.62;100.00;99321.63;1711927;83;21006;-81
2021/10/13 06:25:25;;;;;;;133.93;71.75;;;;;;;11.69;100.00;99313.05;1708959;83;21026;-77
2021/10/13 06:27:53;;;;;;;74.82;45.20;;;;;;;11.77;100.00;99323.22;1715259;82;21009;-84
2021/10/13 06:30:21;;;;;;;64.75;46.33;;;;;;;11.90;100.00;99321.16;1690372;83;21001;-85
2021/10/13 06:32:48;;;;;;;67.72;47.03;;;;;;;12.04;100.00;99319.38;1716161;83;21063;-84
2021/10/13 06:35:15;;;;;;;64.00;44.85;;;;;;;12.17;100.00;99316.44;1669568;84;20979;-85
2021/10/13 06:37:42;;;;;;;63.13;40.17;;;;;;;12.27;100.00;99315.53;1722818;82;20982;-84
2021/10/13 06:40:09;;;;;;;55.08;41.68;;;;;;;12.32;100.00;99311.71;1710507;82;21046;-77
2021/10/13 06:42:38;;;;;;;68.12;48.08;;;;;;;12.39;100.00;99313.11;1680518;85;21050;-75
2021/10/13 06:45:06;;;;;;;63.13;43.75;;;;;;;12.52;100.00;99311.30;1705527;82;20967;-80
2021/10/13 06:47:34;;;;;;;61.45;41.88;;;;;;;12.70;100.00;99311.28;1713007;82;21173;-74
2021/10/13 06:50:00;;;;;;;57.30;42.80;;;;;;;12.84;100.00;99310.28;1702838;84;21018;-73
2021/10/13 06:52:27;;;;;;;58.20;42.03;;;;;;;12.99;100.00;99302.50;1697536;84;21090;-74
2021/10/13 06:54:54;;;;;;;58.08;40.85;;;;;;;13.17;100.00;99295.12;1698612;83;21520;-76
2021/10/13 06:57:21;;;;;;;65.47;42.80;;;;;;;13.33;100.00;99281.70;1704416;83;20980;-73
2021/10/13 06:59:47;;;;;;;96.25;53.13;;;;;;;13.46;100.00;99282.55;1706743;83;21452;-73
2021/10/13 07:02:14;;;;;;;97.95;57.45;;;;;;;13.52;100.00;99272.73;1713702;83;21065;-72
2021/10/13 07:04:41;;;;;;;111.88;61.75;;;;;;;13.46;100.00;99264.90;1697774;84;21014;-73
2021/10/13 07:07:08;;;;;;;182.40;95.72;;;;;;;13.33;100.00;99254.02;1698392;84;21034;-81
2021/10/13 07:09:35;;;;;;;75.42;51.80;;;;;;;13.21;100.00;99251.08;1698513;84;21515;-79
2021/10/13 07:12:02;;;;;;;91.45;62.00;;;;;;;13.20;100.00;99241.25;1718898;82;21047;-80
2021/10/13 07:14:32;;;;;;;178.90;106.47;;;;;;;13.21;100.00;99229.86;1700867;83;21487;-74
2021/10/13 07:16:59;;;;;;;99.32;64.90;;;;;;;13.19;100.00;99225.16;1698925;84;21081;-73
2021/10/13 07:19:25;;;;;;;89.85;51.98;;;;;;;13.15;100.00;99215.78;1676195;84;21579;-78
2021/10/13 07:21:52;;;;;;;63.25;41.92;;;;;;;13.05;100.00;99213.45;1698177;84;20998;-75
2021/10/13 07:24:19;;;;;;;65.75;38.38;;;;;;;12.94;100.00;99205.94;1715546;83;21064;-74
2021/10/13 07:26:46;;;;;;;60.60;37.65;;;;;;;12.89;100.00;99216.05;1728961;83;21472;-84
2021/10/13 07:29:13;;;;;;;104.45;56.18;;;;;;;12.88;100.00;99223.89;1717167;83;21051;-85
2021/10/13 07:31:41;;;;;;;169.25;74.65;;;;;;;12.81;100.00;99225.23;1705301;84;21037;-85
2021/10/13 07:34:08;;;;;;;184.32;79.82;;;;;;;12.77;100.00;99228.58;1704936;83;21038;-83
2021/10/13 07:36:35;;;;;;;142.28;64.75;;;;;;;12.70;100.00;99233.45;1729487;82;20991;-81
2021/10/13 07:39:01;;;;;;;80.40;42.23;;;;;;;12.65;100.00;99241.88;1677374;84;21045;-83
2021/10/13 07:41:28;;;;;;;51.92;32.98;;;;;;;12.66;100.00;99247.11;1706486;81;21006;-84
2021/10/13 07:43:56;;;;;;;58.30;35.13;;;;;;;12.67;100.00;99241.98;1717170;82;20972;-83
2021/10/13 07:46:25;;;;;;;65.00;40.30;;;;;;;12.70;100.00;99244.30;1694882;84;21037;-84
2021/10/13 07:48:52;;;;;;;63.13;36.85;;;;;;;12.74;100.00;99248.79;1697887;84;21472;-74
2021/10/13 07:51:19;;;;;;;62.75;38.42;;;;;;;12.78;100.00;99245.97;1728278;82;21031;-73
2021/10/13 07:53:46;;;;;;;89.58;51.80;;;;;;;12.87;100.00;99238.48;1734601;82;21718;-74
2021/10/13 07:56:13;;;;;;;197.53;102.30;;;;;;;13.01;100.00;99248.31;1724890;81;21041;-74
2021/10/13 07:58:40;;;;;;;171.53;92.55;;;;;;;13.13;100.00;99240.41;1747630;82;21010;-75
2021/10/13 08:01:07;;;;;;;80.47;48.52;;;;;;;13.24;100.00;99234.88;1733438;83;21019;-77
2021/10/13 08:03:34;;;;;;;110.88;63.00;;;;;;;13.31;100.00;99233.03;1764736;81;21084;-73
2021/10/13 08:06:01;;;;;;;78.45;47.85;;;;;;;13.39;100.00;99232.02;1764801;81;20982;-73
2021/10/13 08:08:28;;;;;;;49.83;32.28;;;;;;;13.46;100.00;99228.23;1764582;81;21076;-73
2021/10/13 08:10:55;;;;;;;52.73;34.83;;;;;;;13.54;100.00;99232.61;1765038;81;21013;-74
2021/10/13 08:13:24;;;;;;;45.75;30.25;;;;;;;13.59;100.00;99232.81;1742073;81;21063;-74
2021/10/13 08:15:50;;;;;;;41.50;26.73;;;;;;;13.63;100.00;99228.66;1739487;81;21448;-71
2021/10/13 08:18:17;;;;;;;41.02;26.07;;;;;;;13.70;100.00;99244.92;1756046;80;20997;-72
2021/10/13 08:20:43;;;;;;;48.28;30.02;;;;;;;13.74;100.00;99257.56;1758641;80;20982;-75
2021/10/13 08:23:10;;;;;;;38.08;24.67;;;;;;;13.76;100.00;99255.49;1775014;79;21084;-74
2021/10/13 08:25:37;;;;;;;35.45;21.95;;;;;;;13.84;100.00;99251.17;1755417;81;21017;-75
2021/10/13 08:28:04;;;;;;;41.68;23.15;;;;;;;13.97;100.00;99248.95;1744625;81;21074;-74
2021/10/13 08:30:31;;;;;;;39.08;24.65;;;;;;;14.10;100.00;99253.02;1730358;82;21070;-74
2021/10/13 08:32:58;;;;;;;43.25;26.00;;;;;;;14.23;100.00;99261.11;1745831;81;21598;-73
2021/10/13 08:35:25;;;;;;;40.75;25.20;;;;;;;14.36;100.00;99252.59;1735269;81;21366;-74
2021/10/13 08:37:52;;;;;;;37.10;24.57;;;;;;;14.47;100.00;99246.50;1743293;80;21036;-74
2021/10/13 08:40:19;;;;;;;41.40;25.90;;;;;;;14.63;100.00;99253.91;1741204;81;21003;-76
2021/10/13 08:42:58;;;;;;;45.63;30.92;;;;;;;14.84;100.00;99242.70;1751179;81;20983;-74
2021/10/13 08:45:25;;;;;;;41.88;28.23;;;;;;;15.07;100.00;99230.38;1748253;82;21446;-73
2021/10/13 08:47:52;;;;;;;42.67;27.60;;;;;;;15.34;100.00;99220.97;1754007;80;21018;-76
2021/10/13 08:50:19;;;;;;;43.33;27.50;;;;;;;15.34;100.00;99220.97;1749776;82;20999;-76
2021/10/13 08:52:46;;;;;;;44.25;27.02;;;;;;;15.36;100.00;99205.77;1710640;83;21038;-77
2021/10/13 08:55:13;;;;;;;42.78;27.58;;;;;;;15.35;100.00;99197.27;1694104;83;21040;-74
2021/10/13 08:57:41;;;;;;;41.75;28.50;;;;;;;15.43;100.00;99190.73;1726795;82;21053;-74
2021/10/13 09:00:10;;;;;;;49.42;31.80;;;;;;;15.55;100.00;99178.87;1730715;82;21025;-72
2021/10/13 09:02:42;;;;;;;46.88;30.80;;;;;;;15.68;100.00;99174.34;1677104;84;21052;-75
2021/10/13 09:05:17;;;;;;;47.45;31.60;;;;;;;15.72;100.00;99172.83;1703623;84;21089;-76
2021/10/13 09:07:50;;;;;;;49.00;31.62;;;;;;;15.79;100.00;99169.53;1734796;83;21483;-74
2021/10/13 09:10:30;;;;;;;47.40;30.48;;;;;;;16.00;100.00;99165.52;1667884;85;21025;-75
2021/10/13 09:12:59;;;;;;;44.83;30.05;;;;;;;16.00;100.00;99165.52;1634717;88;21051;-75
2021/10/13 09:15:27;;;;;;;48.05;33.10;;;;;;;16.36;100.00;99169.29;1639178;86;21540;-79
2021/10/13 09:18:00;;;;;;;52.25;33.45;;;;;;;16.86;100.00;99170.92;1609865;89;21132;-78
2021/10/13 09:20:33;;;;;;;45.45;30.08;;;;;;;17.39;100.00;99151.47;1629080;85;21155;-80
2021/10/13 09:23:30;;;;;;;43.95;29.55;;;;;;;17.94;100.00;99146.16;1643705;86;21024;-79
2021/10/13 09:26:09;;;;;;;46.28;30.55;;;;;;;18.34;100.00;99142.57;1632103;88;21521;-82
2021/10/13 09:28:37;;;;;;;37.85;25.50;;;;;;;18.48;100.00;99136.27;1613836;88;21089;-83
2021/10/13 09:31:18;;;;;;;76.45;58.60;;;;;;;18.61;100.00;99131.87;1601429;88;21606;-79
2021/10/13 09:34:02;;;;;;;35.30;24.77;;;;;;;18.60;100.00;99135.13;1601169;88;21044;-81
2021/10/13 09:36:38;;;;;;;46.88;28.92;;;;;;;18.57;100.00;99139.75;1594904;89;21038;-79
2021/10/13 09:39:17;;;;;;;104.25;52.53;;;;;;;18.51;100.00;99139.34;1607636;88;21101;-79
2021/10/13 09:42:10;;;;;;;81.90;44.70;;;;;;;18.35;100.00;99148.35;1581804;90;21099;-73
2021/10/13 09:44:43;;;;;;;44.05;29.00;;;;;;;18.03;100.00;99144.70;1568330;90;21030;-74
2021/10/13 09:47:12;;;;;;;46.55;28.45;;;;;;;17.78;100.00;99140.32;1530639;92;21078;-73
2021/10/13 09:49:50;;;;;;;44.95;26.85;;;;;;;17.82;100.00;99133.83;1519730;93;21080;-81
2021/10/13 09:52:19;;;;;;;41.00;28.30;;;;;;;17.92;100.00;99125.88;1514215;95;21103;-81
2021/10/13 09:54:48;;;;;;;53.87;32.50;;;;;;;18.01;100.00;99137.28;1516720;93;21074;-78
2021/10/13 09:57:24;;;;;;;111.50;52.90;;;;;;;18.00;100.00;99150.10;1518068;93;21618;-77
2021/10/13 10:00:12;;;;;;;355.80;134.22;;;;;;;17.91;100.00;99148.00;1532599;93;21040;-73
2021/10/13 10:02:55;;;;;;;109.70;52.20;;;;;;;17.84;100.00;99145.36;1520895;93;21259;-73
2021/10/13 10:05:33;;;;;;;43.65;28.73;;;;;;;17.73;100.00;99152.51;1522866;93;21079;-78
2021/10/13 10:08:06;;;;;;;47.98;32.35;;;;;;;17.58;100.00;99146.69;1603931;89;21081;-78
2021/10/13 10:10:34;;;;;;;53.98;36.10;;;;;;;17.49;100.00;99148.13;1588604;90;21002;-71
2021/10/13 10:13:09;;;;;;;42.95;26.02;;;;;;;17.64;100.00;99149.85;1617745;89;21033;-70
2021/10/13 10:15:43;;;;;;;49.83;29.18;;;;;;;17.68;100.00;99137.36;1578922;89;21025;-69
2021/10/13 10:18:33;;;;;;;45.03;29.82;;;;;;;17.64;100.00;99135.64;1606926;89;21076;-74
2021/10/13 10:21:26;;;;;;;45.28;29.72;;;;;;;17.69;100.00;99135.45;1617007;89;21085;-71
2021/10/13 10:23:59;;;;;;;46.28;28.47;;;;;;;17.72;100.00;99130.33;1507750;94;21066;-71
2021/10/13 10:26:30;;;;;;;65.30;40.80;;;;;;;17.77;100.00;99133.17;1439492;99;21094;-71
2021/10/13 10:29:03;;;;;;;49.10;29.92;;;;;;;17.70;100.00;99132.47;1448750;99;21936;-71
2021/10/13 10:31:34;;;;;;;44.95;27.87;;;;;;;17.73;100.00;99122.98;1434591;99;22183;-69
2021/10/13 10:34:09;;;;;;;39.78;26.50;;;;;;;17.79;100.00;99105.05;1424319;99;21141;-70
2021/10/13 10:36:44;;;;;;;41.23;27.42;;;;;;;17.83;100.00;99102.70;1425056;99;21140;-71
2021/10/13 10:39:13;;;;;;;45.25;29.07;;;;;;;17.92;100.00;99106.74;1447526;97;21110;-71
2021/10/13 10:41:44;;;;;;;39.85;23.47;;;;;;;17.84;100.00;99090.12;1449845;98;21453;-71
2021/10/13 10:44:36;;;;;;;189.50;91.67;;;;;;;17.69;100.00;99087.60;1483059;95;21110;-71
2021/10/13 10:47:11;;;;;;;75.37;42.08;;;;;;;17.53;100.00;99083.20;1446809;98;21168;-74
2021/10/13 10:49:49;;;;;;;63.33;32.67;;;;;;;17.38;100.00;99058.26;1413523;100;21602;-74
2021/10/13 10:52:22;;;;;;;351.77;128.35;;;;;;;17.30;100.00;99056.73;1410959;100;21548;-73
2021/10/13 10:55:07;;;;;;;66.75;36.40;;;;;;;17.33;100.00;99049.95;1409810;100;21203;-73
2021/10/13 10:57:38;;;;;;;45.40;22.65;;;;;;;17.45;100.00;99037.92;1411558;100;21118;-73
2021/10/13 11:00:08;;;;;;;34.80;20.43;;;;;;;17.76;100.00;99030.89;1424584;97;21019;-76
2021/10/13 11:02:38;;;;;;;49.05;30.48;;;;;;;18.04;100.00;99034.20;1504904;95;21624;-75
2021/10/13 11:05:11;;;;;;;44.90;29.15;;;;;;;18.25;100.00;99042.80;1512863;93;21136;-74
2021/10/13 11:07:42;;;;;;;35.78;21.73;;;;;;;18.33;100.00;99033.66;1517940;93;21365;-72
2021/10/13 11:10:11;;;;;;;36.53;23.25;;;;;;;18.30;100.00;99046.45;1511243;93;21162;-73
2021/10/13 11:12:49;;;;;;;43.35;24.82;;;;;;;18.35;100.00;99059.41;1516631;93;21575;-73
2021/10/13 11:15:18;;;;;;;37.28;23.05;;;;;;;18.40;100.00;99047.19;1566194;90;21170;-74
2021/10/13 11:17:45;;;;;;;47.40;24.43;;;;;;;18.45;100.00;99050.02;1567056;90;21150;-74
2021/10/13 11:20:16;;;;;;;69.47;41.23;;;;;;;18.38;100.00;99058.92;1559341;90;21081;-72
2021/10/13 11:22:43;;;;;;;41.33;24.35;;;;;;;18.16;100.00;99069.17;1599925;83;21026;-72
2021/10/13 11:25:19;;;;;;;40.23;25.95;;;;;;;17.97;100.00;99064.45;1730750;81;20978;-69